createdAt,value
2022-08-29T00:00:00.241Z,1.0
2022-08-29T00:05:00.254Z,1.8
2022-08-29T00:10:00.233Z,0.8
2022-08-29T00:15:00.294Z,0.9
2022-08-29T00:20:00.282Z,1.1
2022-08-29T00:25:00.260Z,1.3
2022-08-29T00:30:00.262Z,0.5
2022-08-29T00:35:00.275Z,0.9
2022-08-29T00:40:01.271Z,0.3
2022-08-29T00:45:00.308Z,0.1
2022-08-29T00:50:00.288Z,0.3
2022-08-29T00:55:00.277Z,0.1
2022-08-29T01:00:00.323Z,0.6
2022-08-29T01:05:00.269Z,1.5
2022-08-29T01:10:02.606Z,0.7
2022-08-29T01:15:00.237Z,0.4
2022-08-29T01:20:00.255Z,0.9
2022-08-29T01:25:00.294Z,1.8
2022-08-29T01:30:00.301Z,1.5
2022-08-29T01:35:00.288Z,2.4
2022-08-29T01:40:00.420Z,1.0
2022-08-29T01:45:03.051Z,1.4
2022-08-29T01:50:00.251Z,1.7
2022-08-29T01:55:00.268Z,1.8
2022-08-29T02:00:00.326Z,0.6
2022-08-29T02:05:00.228Z,0.4
2022-08-29T02:10:00.279Z,1.3
2022-08-29T02:15:00.271Z,0.4
2022-08-29T02:20:00.268Z,0.8
2022-08-29T02:25:00.275Z,0.7
2022-08-29T02:30:00.305Z,0.2
2022-08-29T02:35:00.276Z,0.4
2022-08-29T02:40:00.430Z,1.5
2022-08-29T02:45:00.285Z,1.1
2022-08-29T02:50:00.342Z,2.5
2022-08-29T02:55:00.250Z,3.0
2022-08-29T03:00:00.322Z,2.2
2022-08-29T03:05:00.264Z,3.1
2022-08-29T03:10:00.259Z,2.5
2022-08-29T03:15:00.294Z,0.6
2022-08-29T03:20:00.260Z,1.4
2022-08-29T03:25:00.250Z,1.8
2022-08-29T03:30:00.326Z,1.9
2022-08-29T03:35:00.236Z,2.1
2022-08-29T03:40:00.471Z,1.7
2022-08-29T03:45:00.282Z,0.1
2022-08-29T03:50:00.320Z,0.2
2022-08-29T03:55:00.298Z,0.4
2022-08-29T04:00:00.265Z,0.4
2022-08-29T04:05:08.177Z,1.5
2022-08-29T04:10:00.338Z,1.4
2022-08-29T04:15:00.320Z,0.9
2022-08-29T04:20:00.265Z,2.1
2022-08-29T04:25:00.266Z,2.4
2022-08-29T04:30:00.341Z,1.6
2022-08-29T04:35:00.261Z,1.6
2022-08-29T04:40:00.446Z,2.3
2022-08-29T04:45:00.274Z,1.8
2022-08-29T04:50:00.251Z,1.3
2022-08-29T04:55:00.275Z,0.7
2022-08-29T05:00:00.538Z,1.0
2022-08-29T05:05:00.300Z,0.8
2022-08-29T05:10:00.267Z,2.5
2022-08-29T05:15:00.276Z,1.1
2022-08-29T05:20:00.244Z,2.6
2022-08-29T05:25:00.254Z,1.5
2022-08-29T05:30:00.311Z,0.4
2022-08-29T05:35:00.298Z,1.3
2022-08-29T05:40:00.376Z,2.3
2022-08-29T05:45:00.273Z,2.7
2022-08-29T05:50:00.255Z,1.5
2022-08-29T05:55:00.254Z,1.3
2022-08-29T06:00:00.396Z,0.6
2022-08-29T06:05:00.236Z,2.0
2022-08-29T06:10:04.134Z,1.1
2022-08-29T06:15:00.287Z,1.5
2022-08-29T06:20:00.257Z,3.2
2022-08-29T06:25:11.941Z,1.3
2022-08-29T06:30:02.248Z,2.8
2022-08-29T06:35:00.293Z,3.2
2022-08-29T06:40:00.483Z,1.7
2022-08-29T06:45:00.284Z,3.5
2022-08-29T06:50:00.270Z,4.5
2022-08-29T06:55:01.429Z,3.8
2022-08-29T07:00:01.747Z,5.5
2022-08-29T07:05:00.236Z,3.0
2022-08-29T07:10:00.257Z,2.8
2022-08-29T07:15:00.295Z,2.5
2022-08-29T07:20:00.345Z,1.7
2022-08-29T07:25:00.277Z,3.0
2022-08-29T07:30:00.360Z,3.8
2022-08-29T07:35:00.290Z,4.8
2022-08-29T07:40:00.531Z,4.2
2022-08-29T07:45:00.341Z,2.7
2022-08-29T07:50:00.370Z,3.7
2022-08-29T07:55:00.349Z,4.0
2022-08-29T08:00:00.346Z,3.0
2022-08-29T08:05:00.319Z,2.9
2022-08-29T08:10:00.343Z,4.0
2022-08-29T08:15:00.325Z,2.8
2022-08-29T08:20:00.317Z,2.9
2022-08-29T08:25:00.339Z,4.4
2022-08-29T08:30:00.354Z,5.7
2022-08-29T08:35:00.289Z,3.8
2022-08-29T08:40:00.459Z,4.1
2022-08-29T08:45:00.304Z,2.9
2022-08-29T08:50:00.315Z,2.3
2022-08-29T08:55:00.324Z,5.0
2022-08-29T09:00:00.683Z,4.0
2022-08-29T09:05:00.314Z,2.8
2022-08-29T09:10:00.326Z,1.8
2022-08-29T09:15:00.372Z,2.8
2022-08-29T09:20:00.356Z,3.6
2022-08-29T09:25:00.257Z,4.1
2022-08-29T09:30:00.308Z,4.8
2022-08-29T09:35:10.153Z,4.2
2022-08-29T09:40:00.474Z,3.5
2022-08-29T09:45:00.396Z,4.7
2022-08-29T09:50:00.318Z,2.0
2022-08-29T09:55:00.285Z,4.6
2022-08-29T10:00:00.653Z,2.9
2022-08-29T10:05:00.313Z,4.3
2022-08-29T10:10:00.292Z,7.4
2022-08-29T10:15:00.293Z,4.3
2022-08-29T10:20:00.274Z,7.0
2022-08-29T10:25:00.294Z,5.2
2022-08-29T10:30:01.795Z,3.8
2022-08-29T10:35:00.256Z,6.2
2022-08-29T10:40:00.475Z,3.1
2022-08-29T10:45:00.282Z,6.2
2022-08-29T10:50:00.297Z,5.4
2022-08-29T10:55:00.287Z,5.9
2022-08-29T11:00:00.267Z,4.3
2022-08-29T11:05:00.372Z,7.3
2022-08-29T11:10:00.255Z,6.4
2022-08-29T11:15:00.281Z,6.1
2022-08-29T11:20:00.322Z,7.7
2022-08-29T11:25:00.324Z,4.7
2022-08-29T11:30:00.353Z,7.1
2022-08-29T11:35:00.241Z,5.1
2022-08-29T11:40:00.469Z,3.0
2022-08-29T11:45:00.336Z,3.1
2022-08-29T11:50:00.292Z,5.2
2022-08-29T11:55:00.254Z,6.8
2022-08-29T12:00:00.337Z,6.2
2022-08-29T12:05:00.250Z,3.8
2022-08-29T12:10:00.248Z,4.1
2022-08-29T12:15:00.315Z,4.7
2022-08-29T12:20:00.247Z,4.8
2022-08-29T12:25:00.269Z,4.1
2022-08-29T12:30:00.342Z,6.6
2022-08-29T12:35:00.323Z,5.7
2022-08-29T12:40:00.521Z,4.1
2022-08-29T12:45:00.731Z,5.8
2022-08-29T12:50:00.267Z,5.4
2022-08-29T12:55:00.280Z,4.7
2022-08-29T13:00:00.559Z,3.3
2022-08-29T13:05:00.271Z,5.2
2022-08-29T13:10:00.541Z,5.2
2022-08-29T13:15:00.303Z,3.3
2022-08-29T13:20:00.423Z,4.2
2022-08-29T13:25:00.295Z,5.4
2022-08-29T13:30:00.336Z,5.3
2022-08-29T13:35:00.337Z,4.6
2022-08-29T13:40:00.663Z,5.0
2022-08-29T13:45:00.293Z,4.9
2022-08-29T13:50:00.274Z,5.6
2022-08-29T13:55:00.282Z,4.5
2022-08-29T14:00:00.561Z,4.1
2022-08-29T14:05:00.493Z,3.0
2022-08-29T14:10:00.235Z,2.5
2022-08-29T14:15:06.672Z,3.9
2022-08-29T14:20:00.265Z,2.4
2022-08-29T14:25:00.263Z,3.1
2022-08-29T14:30:00.293Z,1.6
2022-08-29T14:35:00.270Z,4.2
2022-08-29T14:40:00.543Z,2.6
2022-08-29T14:45:00.287Z,2.4
2022-08-29T14:50:00.349Z,4.8
2022-08-29T14:55:00.236Z,1.2
2022-08-29T15:00:00.359Z,3.5
2022-08-29T15:05:00.261Z,2.7
2022-08-29T15:10:00.326Z,5.2
2022-08-29T15:15:00.301Z,2.7
2022-08-29T15:20:37.071Z,4.2
2022-08-29T15:25:00.247Z,4.3
2022-08-29T15:30:00.314Z,4.4
2022-08-29T15:35:00.250Z,5.8
2022-08-29T15:40:00.549Z,1.9
2022-08-29T15:45:05.811Z,3.9
2022-08-29T15:50:00.245Z,2.8
2022-08-29T15:55:00.276Z,3.3
2022-08-29T16:00:00.325Z,1.5
2022-08-29T16:05:00.271Z,3.8
2022-08-29T16:10:03.671Z,5.0
2022-08-29T16:15:02.986Z,5.9
2022-08-29T16:20:00.270Z,5.4
2022-08-29T16:25:00.293Z,4.4
2022-08-29T16:30:00.494Z,3.7
2022-08-29T16:35:00.241Z,5.1
2022-08-29T16:40:00.536Z,2.5
2022-08-29T16:45:00.317Z,5.7
2022-08-29T16:50:00.427Z,3.4
2022-08-29T16:55:00.290Z,1.8
2022-08-29T17:00:00.511Z,0.9
2022-08-29T17:05:00.296Z,1.5
2022-08-29T17:10:00.344Z,2.5
2022-08-29T17:15:00.313Z,1.4
2022-08-29T17:20:00.263Z,1.2
2022-08-29T17:25:00.280Z,1.5
2022-08-29T17:30:00.344Z,0.4
2022-08-29T17:35:00.272Z,0.7
2022-08-29T17:40:00.612Z,0.3
2022-08-29T17:45:00.270Z,0.0
2022-08-29T17:50:00.273Z,0.0
2022-08-29T17:55:07.262Z,0.0
2022-08-29T18:00:00.296Z,0.0
2022-08-29T18:05:01.634Z,0.0
2022-08-29T18:10:00.254Z,0.0
2022-08-29T18:15:00.299Z,0.0
2022-08-29T18:20:00.244Z,0.0
2022-08-29T18:25:00.276Z,0.0
2022-08-29T18:30:00.931Z,0.7
2022-08-29T18:35:01.099Z,0.5
2022-08-29T18:40:00.479Z,1.1
2022-08-29T18:45:00.289Z,0.2
2022-08-29T18:50:00.250Z,0.5
2022-08-29T18:55:00.280Z,0.6
2022-08-29T19:00:00.271Z,1.8
2022-08-29T19:05:00.376Z,1.6
2022-08-29T19:10:00.291Z,0.8
2022-08-29T19:15:00.331Z,2.7
2022-08-29T19:20:00.345Z,1.8
2022-08-29T19:25:00.446Z,3.2
2022-08-29T19:30:05.760Z,2.8
2022-08-29T19:35:00.276Z,2.8
2022-08-29T19:40:00.891Z,2.2
2022-08-29T19:45:00.272Z,2.1
2022-08-29T19:50:00.299Z,1.9
2022-08-29T19:55:00.339Z,2.4
2022-08-29T20:00:00.261Z,1.2
2022-08-29T20:05:00.279Z,0.2
2022-08-29T20:10:02.156Z,0.2
2022-08-29T20:15:00.330Z,0.0
2022-08-29T20:20:00.253Z,0.0
2022-08-29T20:25:00.275Z,0.0
2022-08-29T20:30:00.284Z,0.0
2022-08-29T20:35:00.297Z,0.0
2022-08-29T20:40:00.477Z,0.0
2022-08-29T20:45:00.308Z,0.0
2022-08-29T20:50:00.319Z,0.0
2022-08-29T20:55:00.355Z,0.0
2022-08-29T21:00:00.282Z,0.0
2022-08-29T21:05:00.292Z,0.0
2022-08-29T21:10:02.204Z,0.0
2022-08-29T21:15:00.277Z,0.0
2022-08-29T21:20:00.301Z,0.0
2022-08-29T21:25:00.279Z,0.0
2022-08-29T21:30:00.321Z,0.0
2022-08-29T21:35:00.243Z,0.0
2022-08-29T21:40:00.492Z,0.0
2022-08-29T21:45:00.299Z,0.0
2022-08-29T21:50:00.277Z,0.0
2022-08-29T21:55:00.328Z,0.0
2022-08-29T22:00:00.410Z,0.0
2022-08-29T22:05:00.234Z,0.0
2022-08-29T22:10:00.293Z,0.0
2022-08-29T22:15:00.265Z,0.0
2022-08-29T22:20:00.285Z,0.0
2022-08-29T22:25:00.252Z,0.0
2022-08-29T22:30:00.365Z,0.0
2022-08-29T22:35:00.258Z,0.0
2022-08-29T22:40:00.442Z,0.0
2022-08-29T22:45:04.253Z,0.0
2022-08-29T22:50:00.305Z,0.0
2022-08-29T22:55:00.249Z,0.0
2022-08-29T23:00:00.417Z,0.0
2022-08-29T23:05:00.274Z,0.0
2022-08-29T23:10:00.267Z,0.0
2022-08-29T23:15:00.263Z,0.0
2022-08-29T23:20:00.635Z,0.0
2022-08-29T23:25:00.256Z,0.0
2022-08-29T23:30:00.360Z,0.0
2022-08-29T23:35:00.264Z,0.0
2022-08-29T23:40:00.481Z,0.0
2022-08-29T23:45:00.306Z,0.0
2022-08-29T23:50:00.262Z,0.0
2022-08-29T23:55:00.269Z,0.0
